Time;durP1;ratioP1;P1;durP2;ratioP2;P2;SDS_P1;SDS_P2;PMS_P1;PMS_P2;Temp;Humidity;BMP_temperature;BMP_pressure;BME280_temperature;BME280_humidity;BME280_pressure;Samples;Min_cycle;Max_cycle;Signal;HPM_P1;HPM_P2
2023/10/18 00:03:11;;;;;;;4.50;4.10;;;;;;;6.73;100.00;101833.91;6178593;28;20245;-70
2023/10/18 00:06:34;;;;;;;5.00;4.43;;;;;;;6.63;100.00;101830.06;6183291;28;20237;-70
2023/10/18 00:09:57;;;;;;;4.53;3.53;;;;;;;6.62;100.00;101831.84;6178596;28;20229;-70
2023/10/18 00:13:18;;;;;;;4.87;4.43;;;;;;;6.61;100.00;101811.41;6181251;28;20491;-70
2023/10/18 00:16:39;;;;;;;6.60;4.77;;;;;;;6.62;100.00;101810.44;6181399;28;20316;-72
2023/10/18 00:20:00;;;;;;;5.00;4.17;;;;;;;6.67;100.00;101810.16;6175220;28;20226;-71
2023/10/18 00:23:22;;;;;;;5.60;4.60;;;;;;;6.47;100.00;101803.25;6188185;28;20225;-71
2023/10/18 00:26:44;;;;;;;7.00;4.83;;;;;;;6.46;100.00;101796.19;6188389;28;20222;-71
2023/10/18 00:30:07;;;;;;;6.07;4.70;;;;;;;6.40;100.00;101801.91;6185923;28;20233;-71
2023/10/18 00:33:28;;;;;;;3.97;3.67;;;;;;;6.32;100.00;101802.31;6180357;28;20226;-71
2023/10/18 00:36:49;;;;;;;6.10;5.33;;;;;;;6.33;100.00;101785.31;6188703;28;20258;-70
2023/10/18 00:40:20;;;;;;;4.83;4.37;;;;;;;6.33;100.00;101790.66;6181247;28;20541;-70
2023/10/18 00:43:45;;;;;;;6.20;5.60;;;;;;;6.32;100.00;101793.44;6193685;28;20225;-70
2023/10/18 00:47:06;;;;;;;4.77;4.37;;;;;;;6.31;100.00;101789.88;6177077;28;21072;-71
2023/10/18 00:50:31;;;;;;;4.73;3.90;;;;;;;6.20;100.00;101788.75;6179716;28;20233;-71
2023/10/18 00:53:52;;;;;;;6.90;4.87;;;;;;;6.18;100.00;101790.66;6190519;28;20226;-71
2023/10/18 00:57:13;;;;;;;4.67;3.57;;;;;;;6.19;100.00;101787.91;6186633;28;20234;-70
2023/10/18 01:00:37;;;;;;;7.23;5.57;;;;;;;6.19;100.00;101773.66;6187497;28;20498;-71
2023/10/18 01:04:02;;;;;;;5.63;4.60;;;;;;;6.16;100.00;101769.34;6186056;28;20221;-70
2023/10/18 01:07:24;;;;;;;6.47;4.53;;;;;;;6.17;100.00;101771.06;6189512;28;20257;-71
2023/10/18 01:10:49;;;;;;;6.53;4.77;;;;;;;6.14;100.00;101767.69;6185274;28;20221;-71
2023/10/18 01:14:16;;;;;;;7.70;4.43;;;;;;;6.11;100.00;101775.91;6187561;28;20240;-71
2023/10/18 01:17:44;;;;;;;5.33;4.83;;;;;;;6.01;100.00;101778.22;6188618;28;20225;-71
2023/10/18 01:21:13;;;;;;;5.97;5.40;;;;;;;6.01;100.00;101771.97;6194637;28;20238;-71
2023/10/18 01:24:36;;;;;;;5.50;5.00;;;;;;;5.81;100.00;101775.75;6178310;28;20222;-71
2023/10/18 01:27:57;;;;;;;5.20;4.17;;;;;;;5.78;100.00;101772.38;6184062;28;20238;-71
2023/10/18 01:31:18;;;;;;;6.80;4.40;;;;;;;5.82;100.00;101763.25;6192660;28;20234;-70
2023/10/18 01:34:40;;;;;;;6.00;4.17;;;;;;;5.81;100.00;101766.84;6190834;28;20600;-70
2023/10/18 01:38:04;;;;;;;4.30;3.90;;;;;;;5.90;100.00;101775.28;6187199;28;20226;-70
2023/10/18 01:41:27;;;;;;;5.27;4.77;;;;;;;5.88;100.00;101774.50;6195615;28;20276;-70
2023/10/18 01:44:49;;;;;;;7.33;5.50;;;;;;;5.89;100.00;101778.91;6181575;28;20242;-70
2023/10/18 01:48:13;;;;;;;4.13;3.83;;;;;;;5.79;100.00;101779.44;6186283;28;20227;-70
2023/10/18 01:51:35;;;;;;;7.33;4.40;;;;;;;5.93;100.00;101774.22;6194446;28;20229;-71
2023/10/18 01:54:55;;;;;;;4.83;4.30;;;;;;;5.56;100.00;101773.53;6186271;28;20234;-68
2023/10/18 01:58:18;;;;;;;4.57;3.90;;;;;;;5.43;100.00;101763.56;6186935;28;20226;-70
2023/10/18 02:01:38;;;;;;;4.93;4.53;;;;;;;5.39;100.00;101764.69;6190091;28;20238;-70
2023/10/18 02:05:05;;;;;;;4.40;4.00;;;;;;;5.48;100.00;101758.84;6183312;28;20234;-71
2023/10/18 02:08:26;;;;;;;10.90;4.23;;;;;;;5.59;100.00;101761.81;6184472;28;20316;-70
2023/10/18 02:11:47;;;;;;;3.87;3.50;;;;;;;5.58;100.00;101758.28;6179349;28;20343;-70
2023/10/18 02:15:11;;;;;;;4.53;3.83;;;;;;;5.37;100.00;101751.41;6182540;28;20233;-70
2023/10/18 02:18:33;;;;;;;4.60;4.20;;;;;;;5.47;100.00;101751.75;6203994;28;20234;-70
2023/10/18 02:21:54;;;;;;;4.90;4.37;;;;;;;5.63;100.00;101747.34;6180830;28;20241;-70
2023/10/18 02:25:29;;;;;;;8.03;4.40;;;;;;;5.82;100.00;101742.69;6179095;28;20970;-70
2023/10/18 02:28:50;;;;;;;5.23;3.53;;;;;;;5.65;100.00;101748.13;6182031;28;20230;-69
2023/10/18 02:32:23;;;;;;;5.57;3.77;;;;;;;5.64;100.00;101741.03;6190639;28;20225;-71
2023/10/18 02:35:43;;;;;;;4.50;3.90;;;;;;;5.71;100.00;101744.22;6187450;28;20241;-70
2023/10/18 02:39:05;;;;;;;4.10;3.43;;;;;;;5.70;100.00;101732.66;6184527;28;20345;-69
2023/10/18 02:42:26;;;;;;;3.97;3.63;;;;;;;5.67;100.00;101730.16;6186631;28;20230;-69
2023/10/18 02:45:51;;;;;;;4.77;4.27;;;;;;;5.62;100.00;101735.75;6180150;28;20261;-70
2023/10/18 02:49:13;;;;;;;4.90;4.50;;;;;;;5.64;100.00;101741.03;6202724;28;20233;-71
2023/10/18 02:52:35;;;;;;;5.57;4.93;;;;;;;5.60;100.00;101735.00;6189658;28;20237;-70
2023/10/18 02:55:59;;;;;;;7.27;5.47;;;;;;;5.59;100.00;101719.88;6182545;28;20230;-70
2023/10/18 02:59:21;;;;;;;7.30;5.37;;;;;;;5.55;100.00;101722.78;6183543;28;20253;-70
2023/10/18 03:02:42;;;;;;;5.33;3.97;;;;;;;5.61;100.00;101719.81;6190837;28;20245;-69
2023/10/18 03:06:12;;;;;;;4.07;3.70;;;;;;;5.54;100.00;101713.94;6188580;28;20233;-70
2023/10/18 03:09:49;;;;;;;5.30;4.83;;;;;;;5.62;100.00;101717.03;6185616;28;20229;-69
2023/10/18 03:13:12;;;;;;;4.83;4.43;;;;;;;5.69;100.00;101701.53;6192498;28;20245;-70
2023/10/18 03:16:41;;;;;;;5.40;4.37;;;;;;;5.70;100.00;101711.25;6182711;28;20221;-70
2023/10/18 03:20:06;;;;;;;5.70;5.17;;;;;;;5.72;100.00;101716.50;6186748;28;20316;-70
2023/10/18 03:23:31;;;;;;;4.17;3.87;;;;;;;5.31;100.00;101716.97;6184280;28;20234;-70
2023/10/18 03:26:51;;;;;;;6.97;6.27;;;;;;;5.22;100.00;101712.13;6183442;28;20245;-69
2023/10/18 03:30:17;;;;;;;9.30;8.30;;;;;;;5.34;100.00;101707.94;6177776;28;20257;-71
2023/10/18 03:33:38;;;;;;;7.47;5.80;;;;;;;5.36;100.00;101709.56;6188097;28;20242;-71
2023/10/18 03:36:59;;;;;;;5.73;4.43;;;;;;;5.30;100.00;101719.75;6183698;28;20230;-71
2023/10/18 03:40:23;;;;;;;5.23;4.73;;;;;;;5.23;100.00;101713.00;6180347;28;20229;-70
2023/10/18 03:43:49;;;;;;;6.67;6.03;;;;;;;5.25;100.00;101700.41;6182398;28;20241;-70
2023/10/18 03:47:12;;;;;;;4.97;4.50;;;;;;;5.31;100.00;101692.06;6188212;28;20698;-70
2023/10/18 03:50:38;;;;;;;5.57;4.20;;;;;;;5.28;100.00;101689.53;6185124;28;20222;-70
2023/10/18 03:54:00;;;;;;;5.63;5.00;;;;;;;5.26;100.00;101691.41;6183751;28;20235;-70
2023/10/18 03:57:28;;;;;;;5.77;5.23;;;;;;;5.31;100.00;101690.25;6186207;28;20229;-70
2023/10/18 04:00:48;;;;;;;16.27;14.57;;;;;;;5.24;100.00;101693.31;6177359;28;20941;-70
2023/10/18 04:04:18;;;;;;;21.80;19.47;;;;;;;5.15;100.00;101685.81;6184592;28;20230;-70
2023/10/18 04:07:38;;;;;;;13.83;12.43;;;;;;;5.10;100.00;101675.34;6184527;28;20256;-69
2023/10/18 04:11:00;;;;;;;6.50;5.83;;;;;;;5.10;100.00;101679.84;6179053;28;20229;-70
2023/10/18 04:14:22;;;;;;;6.83;6.07;;;;;;;5.15;100.00;101669.78;6183145;28;20245;-70
2023/10/18 04:17:44;;;;;;;9.50;8.47;;;;;;;5.13;100.00;101669.00;6183522;28;20507;-70
2023/10/18 04:21:06;;;;;;;8.33;7.43;;;;;;;5.03;100.00;101675.78;6177230;28;20540;-70
2023/10/18 04:24:28;;;;;;;4.10;3.70;;;;;;;5.07;100.00;101674.66;6184232;28;20257;-70
2023/10/18 04:27:50;;;;;;;3.30;3.03;;;;;;;5.08;100.00;101674.59;6183178;28;20320;-70
2023/10/18 04:31:14;;;;;;;3.73;2.93;;;;;;;4.96;100.00;101672.56;6182022;28;20226;-69
2023/10/18 04:34:35;;;;;;;4.70;3.67;;;;;;;4.92;100.00;101670.13;6191121;28;20226;-69
2023/10/18 04:37:56;;;;;;;4.10;3.60;;;;;;;4.70;100.00;101657.91;6182851;28;20320;-69
2023/10/18 04:41:27;;;;;;;5.77;4.37;;;;;;;4.76;100.00;101657.56;6181164;28;20246;-70
2023/10/18 04:44:49;;;;;;;5.50;3.73;;;;;;;4.76;100.00;101659.38;6184388;28;20257;-71
2023/10/18 04:48:15;;;;;;;5.07;4.03;;;;;;;4.70;100.00;101646.34;6186711;28;20242;-69
2023/10/18 04:51:44;;;;;;;5.70;4.27;;;;;;;4.76;100.00;101643.34;6181852;28;20249;-69
2023/10/18 04:55:11;;;;;;;6.70;5.40;;;;;;;4.63;100.00;101637.78;6178570;28;20237;-70
2023/10/18 04:58:32;;;;;;;4.97;4.57;;;;;;;4.67;100.00;101636.69;6168853;28;20241;-69
2023/10/18 05:01:59;;;;;;;7.20;6.10;;;;;;;4.66;100.00;101639.44;6178250;28;20221;-71
2023/10/18 05:05:25;;;;;;;5.93;5.33;;;;;;;4.73;100.00;101638.19;6184058;28;20321;-70
2023/10/18 05:08:48;;;;;;;5.40;3.73;;;;;;;4.77;100.00;101637.09;6188155;28;20227;-70
2023/10/18 05:12:27;;;;;;;5.33;4.30;;;;;;;4.76;100.00;101643.34;6183935;28;20226;-70
2023/10/18 05:15:51;;;;;;;8.80;4.57;;;;;;;4.77;100.00;101632.59;6179577;28;20218;-70
2023/10/18 05:19:12;;;;;;;6.10;4.80;;;;;;;4.85;100.00;101632.19;6191016;28;20225;-70
2023/10/18 05:22:41;;;;;;;9.97;5.13;;;;;;;4.84;100.00;101631.31;6178375;28;20246;-70
2023/10/18 05:26:17;;;;;;;6.80;6.03;;;;;;;4.81;100.00;101641.31;6185154;28;20230;-70
2023/10/18 05:29:43;;;;;;;4.93;4.43;;;;;;;4.71;100.00;101624.06;6180704;28;20237;-71
2023/10/18 05:33:03;;;;;;;4.90;4.40;;;;;;;4.79;100.00;101632.53;6189280;28;20237;-70
2023/10/18 05:36:42;;;;;;;6.47;5.30;;;;;;;4.79;100.00;101624.50;6185307;28;20229;-72
2023/10/18 05:43:47;;;;;;;33.93;26.20;;;;;;;4.72;100.00;101631.09;6171361;28;20234;-71
2023/10/18 05:47:09;;;;;;;20.03;17.30;;;;;;;4.94;100.00;101625.50;6178387;28;20234;-72
2023/10/18 05:50:34;;;;;;;5.37;4.87;;;;;;;4.88;100.00;101623.16;6185563;28;20643;-71
2023/10/18 05:53:59;;;;;;;6.93;4.27;;;;;;;4.80;100.00;101629.75;6186921;28;20230;-71
2023/10/18 05:57:23;;;;;;;4.93;4.43;;;;;;;4.65;100.00;101635.91;6186428;28;20610;-71
2023/10/18 06:00:48;;;;;;;5.17;3.60;;;;;;;4.59;100.00;101636.22;6187876;28;20230;-71
2023/10/18 06:04:08;;;;;;;4.27;3.50;;;;;;;4.72;100.00;101641.78;6185927;28;20234;-71
2023/10/18 06:07:32;;;;;;;9.70;4.50;;;;;;;4.78;100.00;101649.47;6185207;28;20253;-71
2023/10/18 06:10:57;;;;;;;6.17;3.00;;;;;;;4.80;100.00;101637.78;6187000;28;20234;-71
2023/10/18 06:14:19;;;;;;;4.67;4.17;;;;;;;4.86;100.00;101628.56;6190836;28;20253;-71
2023/10/18 06:17:53;;;;;;;4.33;3.73;;;;;;;4.88;100.00;101621.34;6184420;28;20222;-72
2023/10/18 06:21:18;;;;;;;4.60;3.13;;;;;;;4.91;100.00;101629.19;6185213;28;20528;-71
2023/10/18 06:24:38;;;;;;;6.97;4.73;;;;;;;4.91;100.00;101629.19;6188791;28;20230;-71
2023/10/18 06:27:59;;;;;;;4.00;3.33;;;;;;;5.01;100.00;101622.41;6190681;28;20348;-71
2023/10/18 06:31:24;;;;;;;3.57;3.23;;;;;;;5.06;100.00;101623.03;6188088;28;20245;-70
2023/10/18 06:34:45;;;;;;;3.53;3.23;;;;;;;5.11;100.00;101607.59;6184811;28;20261;-71
2023/10/18 06:38:09;;;;;;;5.70;3.63;;;;;;;5.22;100.00;101609.69;6184801;28;20234;-71
2023/10/18 06:41:31;;;;;;;4.90;3.23;;;;;;;5.35;100.00;101611.59;6185635;28;20238;-71
2023/10/18 06:44:52;;;;;;;4.33;3.93;;;;;;;5.45;100.00;101596.78;6184009;28;20513;-71
2023/10/18 06:48:15;;;;;;;4.83;3.77;;;;;;;5.54;100.00;101608.78;6185256;28;20239;-70
2023/10/18 06:51:40;;;;;;;4.87;4.10;;;;;;;5.57;100.00;101608.56;6185625;28;20230;-72
2023/10/18 06:55:02;;;;;;;4.70;3.43;;;;;;;5.69;100.00;101602.56;6183577;28;20735;-72
2023/10/18 06:58:41;;;;;;;4.47;3.73;;;;;;;5.87;100.00;101598.84;6186916;28;20225;-71
2023/10/18 07:02:03;;;;;;;5.63;4.53;;;;;;;5.91;100.00;101603.06;6186610;28;20225;-71
2023/10/18 07:05:28;;;;;;;5.37;4.03;;;;;;;5.97;100.00;101601.84;6184530;28;20234;-71
2023/10/18 07:08:50;;;;;;;4.53;3.10;;;;;;;5.98;100.00;101601.78;6182957;28;20241;-72
2023/10/18 07:12:11;;;;;;;4.27;3.63;;;;;;;6.09;100.00;101593.97;6188322;28;20226;-72
2023/10/18 07:15:35;;;;;;;4.23;3.37;;;;;;;6.20;100.00;101594.19;6177290;28;20238;-71
2023/10/18 07:19:07;;;;;;;3.37;3.13;;;;;;;6.15;100.00;101596.28;6182694;28;20249;-73
2023/10/18 07:22:44;;;;;;;5.67;4.00;;;;;;;6.30;100.00;101595.38;6185896;28;20358;-72
2023/10/18 07:26:07;;;;;;;3.53;3.23;;;;;;;6.45;100.00;101589.09;6175124;28;20249;-72
2023/10/18 07:29:28;;;;;;;4.47;3.87;;;;;;;6.62;100.00;101565.78;6178473;28;20272;-72
2023/10/18 07:32:57;;;;;;;12.23;10.93;;;;;;;6.75;100.00;101577.47;6183534;28;20229;-72
2023/10/18 07:36:18;;;;;;;19.43;11.57;;;;;;;6.77;100.00;101575.56;6183905;28;20252;-73
2023/10/18 07:39:41;;;;;;;8.03;7.23;;;;;;;6.86;100.00;101566.97;6181861;28;20222;-72
2023/10/18 07:43:05;;;;;;;5.17;3.23;;;;;;;6.93;100.00;101562.94;6183908;28;20433;-72
2023/10/18 07:46:27;;;;;;;4.53;4.13;;;;;;;6.96;100.00;101563.63;6187190;28;20238;-72
2023/10/18 07:49:48;;;;;;;5.67;3.57;;;;;;;6.94;100.00;101561.97;6180489;28;20245;-72
2023/10/18 07:53:12;;;;;;;4.30;3.63;;;;;;;6.79;100.00;101560.25;6182646;28;20233;-71
2023/10/18 07:56:40;;;;;;;5.30;4.07;;;;;;;6.98;100.00;101559.03;6183836;28;20753;-72
2023/10/18 08:03:29;;;;;;;4.87;2.97;;;;;;;7.13;100.00;101552.66;6249126;28;20867;-72
2023/10/18 08:06:50;;;;;;;5.43;3.40;;;;;;;7.39;100.00;101553.69;6232971;28;20504;-72
2023/10/18 08:10:14;;;;;;;5.27;3.60;;;;;;;7.60;100.00;101546.91;6233734;28;21221;-71
2023/10/18 08:13:43;;;;;;;2.83;2.63;;;;;;;7.86;100.00;101537.97;6236276;28;20228;-72
2023/10/18 08:17:09;;;;;;;5.47;4.53;;;;;;;8.13;100.00;101534.41;6221911;28;20235;-72
2023/10/18 08:20:55;;;;;;;3.00;2.70;;;;;;;8.31;100.00;101517.06;6245704;28;20722;-72
2023/10/18 08:24:19;;;;;;;3.77;3.30;;;;;;;8.34;100.00;101522.25;6236936;28;20233;-72
2023/10/18 08:27:41;;;;;;;6.47;5.97;;;;;;;8.75;100.00;101522.88;6235217;28;20606;-72
2023/10/18 08:31:10;;;;;;;12.87;11.47;;;;;;;9.26;100.00;101515.59;6235781;28;20321;-71
2023/10/18 08:34:31;;;;;;;7.13;5.13;;;;;;;9.28;100.00;101514.47;6258876;28;20621;-72
2023/10/18 08:37:53;;;;;;;3.90;2.97;;;;;;;9.37;100.00;101521.03;6254092;28;20227;-72
2023/10/18 08:41:16;;;;;;;7.40;2.53;;;;;;;9.49;100.00;101514.75;6231292;28;20290;-72
2023/10/18 08:44:38;;;;;;;4.90;3.67;;;;;;;9.71;100.00;101514.00;6234988;28;20614;-72
2023/10/18 08:47:59;;;;;;;10.97;9.10;;;;;;;10.05;100.00;101507.78;6251747;28;20229;-72
2023/10/18 08:51:21;;;;;;;9.30;6.37;;;;;;;10.44;100.00;101502.91;6255568;28;20236;-72
2023/10/18 08:54:45;;;;;;;6.03;4.37;;;;;;;10.94;100.00;101496.19;6254009;28;20240;-72
2023/10/18 08:58:08;;;;;;;3.10;2.90;;;;;;;11.23;100.00;101494.69;6249978;28;20227;-72
2023/10/18 09:01:34;;;;;;;3.50;2.30;;;;;;;11.38;100.00;101492.59;6236058;28;20239;-71
2023/10/18 09:04:55;;;;;;;2.83;2.47;;;;;;;11.51;100.00;101492.44;6239711;28;20256;-71
2023/10/18 09:08:26;;;;;;;3.20;3.00;;;;;;;12.03;100.00;101493.38;6226285;28;20261;-71
2023/10/18 09:11:48;;;;;;;3.93;2.73;;;;;;;12.12;100.00;101493.56;6249360;28;20258;-71
2023/10/18 09:18:49;;;;;;;3.10;2.80;;;;;;;13.70;100.00;101475.72;6220924;28;20244;-71
2023/10/18 09:22:09;;;;;;;2.60;2.27;;;;;;;15.50;89.90;101480.84;6239082;28;20229;-72
2023/10/18 09:25:47;;;;;;;2.80;2.37;;;;;;;17.30;75.23;101466.38;6221483;28;20228;-72
2023/10/18 09:29:10;;;;;;;3.20;2.60;;;;;;;19.35;65.13;101465.97;6210446;28;20643;-73
2023/10/18 09:32:33;;;;;;;3.93;2.40;;;;;;;18.92;63.91;101465.44;6226329;28;20230;-72
2023/10/18 09:36:01;;;;;;;2.70;1.98;;;;;;;20.70;58.13;101465.13;6239586;28;20224;-73
2023/10/18 09:39:24;;;;;;;2.83;2.47;;;;;;;20.97;54.44;101466.34;6228458;28;20228;-72
2023/10/18 09:42:45;;;;;;;2.70;1.88;;;;;;;21.53;51.60;101459.34;6211850;28;20240;-71
2023/10/18 09:46:10;;;;;;;3.20;2.10;;;;;;;22.05;48.80;101455.28;6221482;28;20536;-72
2023/10/18 09:49:34;;;;;;;4.03;2.10;;;;;;;21.88;47.52;101451.09;6218624;28;20233;-72
2023/10/18 09:52:59;;;;;;;2.78;1.90;;;;;;;22.15;45.21;101447.53;6229654;28;20942;-71
2023/10/18 09:56:24;;;;;;;3.38;2.10;;;;;;;23.00;44.16;101448.22;6242245;28;20236;-72
2023/10/18 09:59:47;;;;;;;2.08;1.75;;;;;;;22.42;43.20;101440.41;6211270;28;20687;-71
2023/10/18 10:03:10;;;;;;;1.88;1.77;;;;;;;22.53;42.68;101436.25;6240267;28;20324;-72
2023/10/18 10:06:31;;;;;;;3.63;1.65;;;;;;;24.56;39.73;101432.31;6216328;28;20253;-71
2023/10/18 10:10:00;;;;;;;4.07;1.67;;;;;;;24.98;38.03;101429.09;6218982;28;20233;-73
2023/10/18 10:13:25;;;;;;;3.75;3.45;;;;;;;23.66;38.71;101426.50;6209407;28;20360;-73
2023/10/18 10:16:52;;;;;;;2.47;2.33;;;;;;;22.96;38.46;101422.19;6211502;28;20257;-72
2023/10/18 10:20:21;;;;;;;1.58;1.25;;;;;;;21.83;39.82;101417.03;6227926;28;20540;-72
2023/10/18 10:23:43;;;;;;;1.50;1.33;;;;;;;23.23;38.78;101409.41;6238267;28;20236;-72
2023/10/18 10:27:39;;;;;;;1.65;1.50;;;;;;;21.76;39.48;101405.94;6206889;28;20229;-70
2023/10/18 10:30:59;;;;;;;1.75;1.65;;;;;;;21.16;41.51;101394.50;6209500;28;20222;-72
2023/10/18 10:34:27;;;;;;;2.53;1.48;;;;;;;21.60;41.03;101387.00;6222425;28;20233;-71
2023/10/18 10:37:50;;;;;;;1.45;1.17;;;;;;;23.35;39.22;101388.50;6218025;28;20228;-71
2023/10/18 10:41:20;;;;;;;5.25;4.57;;;;;;;22.75;39.26;101381.03;6205268;28;20221;-72
2023/10/18 10:44:57;;;;;;;2.78;2.58;;;;;;;21.79;40.13;101375.38;6218476;28;20536;-71
2023/10/18 10:48:36;;;;;;;2.08;1.20;;;;;;;22.68;39.24;101388.38;6213209;28;20228;-71
2023/10/18 10:51:58;;;;;;;1.80;1.67;;;;;;;24.36;36.72;101368.94;6227820;28;20233;-72
2023/10/18 10:55:22;;;;;;;1.67;1.58;;;;;;;23.80;37.29;101365.72;6215857;28;22058;-72
2023/10/18 10:58:46;;;;;;;1.65;1.30;;;;;;;23.70;37.52;101356.19;6203017;28;20241;-72
2023/10/18 11:02:07;;;;;;;1.85;1.42;;;;;;;23.64;37.55;101355.13;6209749;28;20233;-73
2023/10/18 11:05:28;;;;;;;3.78;2.65;;;;;;;23.79;37.32;101350.28;6241831;28;20315;-72
2023/10/18 11:08:51;;;;;;;3.17;1.73;;;;;;;24.10;36.89;101343.28;6201353;28;20229;-72
2023/10/18 11:12:13;;;;;;;3.25;2.22;;;;;;;24.26;36.79;101340.13;6211807;28;20234;-73
2023/10/18 11:15:37;;;;;;;3.58;2.80;;;;;;;24.04;35.50;101341.41;6209514;28;20311;-73
2023/10/18 11:19:00;;;;;;;2.65;2.45;;;;;;;25.05;35.19;101333.34;6232938;28;20233;-72
2023/10/18 11:22:22;;;;;;;2.70;1.90;;;;;;;25.75;34.37;101326.75;6215586;28;20600;-72
2023/10/18 11:25:43;;;;;;;1.55;1.38;;;;;;;24.35;34.31;101325.03;6241024;28;20243;-72
2023/10/18 11:29:06;;;;;;;3.45;1.67;;;;;;;25.72;34.13;101331.91;6230764;28;20496;-72
2023/10/18 11:32:28;;;;;;;3.92;1.90;;;;;;;25.23;34.59;101321.56;6204643;28;20810;-72
2023/10/18 11:35:50;;;;;;;2.28;1.67;;;;;;;25.06;34.77;101310.19;6215450;28;20594;-72
2023/10/18 11:39:23;;;;;;;2.53;1.48;;;;;;;23.58;35.19;101316.56;6238307;28;20232;-72
2023/10/18 11:42:54;;;;;;;6.28;2.45;;;;;;;24.26;35.52;101301.53;6235655;28;20244;-72
2023/10/18 11:46:19;;;;;;;4.00;2.38;;;;;;;24.25;35.33;101306.19;6212433;28;20240;-71
2023/10/18 11:49:42;;;;;;;4.03;3.67;;;;;;;24.11;35.24;101306.44;6210330;28;20496;-72
2023/10/18 11:53:09;;;;;;;5.25;2.53;;;;;;;24.07;35.44;101300.50;6222314;28;20283;-73
2023/10/18 11:56:36;;;;;;;2.38;1.92;;;;;;;24.33;34.85;101286.66;6220390;28;20415;-72
2023/10/18 12:00:19;;;;;;;1.63;1.48;;;;;;;25.08;34.23;101277.69;6210551;28;20224;-73
2023/10/18 12:03:43;;;;;;;2.05;1.85;;;;;;;25.00;34.15;101272.44;6211288;28;20237;-73
2023/10/18 12:07:08;;;;;;;3.95;2.50;;;;;;;22.80;36.45;101275.94;6220860;28;20399;-73
2023/10/18 12:10:35;;;;;;;2.00;1.80;;;;;;;20.38;40.31;101276.47;6234090;28;20323;-73
2023/10/18 12:13:55;;;;;;;2.33;1.80;;;;;;;19.92;42.19;101262.91;6206328;28;20634;-72
2023/10/18 12:17:17;;;;;;;2.60;2.40;;;;;;;20.48;41.91;101266.06;6209011;28;20233;-72
2023/10/18 12:20:43;;;;;;;3.33;2.50;;;;;;;19.96;42.79;101255.19;6207014;28;20230;-72
2023/10/18 12:24:07;;;;;;;2.75;1.65;;;;;;;19.43;43.38;101248.00;6230649;28;20228;-71
2023/10/18 12:27:34;;;;;;;1.80;1.70;;;;;;;19.66;43.01;101246.06;6217516;28;20630;-73
2023/10/18 12:30:56;;;;;;;3.35;2.28;;;;;;;19.20;44.87;101236.19;6204613;28;20218;-71
2023/10/18 12:34:17;;;;;;;2.03;1.85;;;;;;;19.68;44.27;101234.94;6212656;28;20613;-71
2023/10/18 12:37:40;;;;;;;1.98;1.88;;;;;;;18.86;46.09;101235.75;6224803;28;20245;-73
2023/10/18 12:41:05;;;;;;;2.20;1.75;;;;;;;18.77;45.99;101215.88;6207261;28;20229;-71
2023/10/18 12:44:28;;;;;;;6.05;3.33;;;;;;;18.72;45.97;101220.16;6216518;28;20614;-72
2023/10/18 12:47:51;;;;;;;8.68;7.97;;;;;;;18.64;46.60;101204.69;6211644;28;20233;-72
2023/10/18 12:51:13;;;;;;;3.88;3.38;;;;;;;18.68;46.61;101192.34;6212477;28;20237;-72
2023/10/18 12:54:36;;;;;;;5.50;3.50;;;;;;;17.99;47.39;101193.19;6220147;28;20237;-72
2023/10/18 12:57:56;;;;;;;2.70;2.13;;;;;;;17.27;48.14;101190.59;6234847;28;20233;-72
2023/10/18 13:01:22;;;;;;;3.42;3.13;;;;;;;17.33;49.52;101184.47;6217619;28;20614;-70
2023/10/18 13:04:44;;;;;;;2.80;2.22;;;;;;;17.33;49.41;101174.44;6214023;28;20328;-72
2023/10/18 13:08:16;;;;;;;2.58;2.17;;;;;;;17.28;49.55;101168.63;6253444;28;20229;-72
2023/10/18 13:11:52;;;;;;;2.88;2.60;;;;;;;17.22;49.81;101165.72;6216453;28;20229;-74
2023/10/18 13:15:14;;;;;;;3.65;3.35;;;;;;;17.01;49.58;101162.69;6207610;28;20253;-73
2023/10/18 13:18:35;;;;;;;2.58;2.38;;;;;;;16.72;49.95;101149.56;6243530;28;20717;-72
2023/10/18 13:21:56;;;;;;;3.20;2.90;;;;;;;16.78;50.99;101140.72;6225470;28;20225;-72
2023/10/18 13:25:25;;;;;;;2.47;2.28;;;;;;;15.94;53.13;101138.13;6213145;28;20241;-73
2023/10/18 13:28:52;;;;;;;3.63;3.28;;;;;;;16.06;52.76;101133.25;6231490;28;20235;-73
2023/10/18 13:32:13;;;;;;;5.68;3.72;;;;;;;15.98;53.81;101130.50;6203779;28;20320;-73
2023/10/18 13:35:35;;;;;;;3.40;3.00;;;;;;;15.91;54.56;101121.31;6225877;28;20240;-73
2023/10/18 13:38:56;;;;;;;4.00;2.93;;;;;;;15.90;55.31;101117.72;6207267;28;20275;-72
2023/10/18 13:42:18;;;;;;;2.50;2.30;;;;;;;15.91;55.58;101107.72;6212762;28;20241;-73
2023/10/18 13:45:42;;;;;;;2.63;2.42;;;;;;;16.99;53.02;101096.63;6212308;28;20233;-73
2023/10/18 13:49:08;;;;;;;2.17;1.83;;;;;;;17.22;50.66;101095.75;6236189;28;20618;-73
2023/10/18 13:52:29;;;;;;;3.57;2.27;;;;;;;16.35;52.27;101083.84;6218088;28;20228;-72
2023/10/18 13:55:56;;;;;;;3.23;2.30;;;;;;;16.23;53.98;101077.03;6207785;28;20233;-72
2023/10/18 13:59:19;;;;;;;6.73;4.47;;;;;;;15.52;55.25;101077.47;6234624;28;20331;-74
2023/10/18 14:02:41;;;;;;;3.20;2.90;;;;;;;15.55;55.58;101069.00;6206114;28;20242;-73
2023/10/18 14:06:02;;;;;;;2.47;2.17;;;;;;;15.70;55.52;101072.81;6208494;28;20225;-72
2023/10/18 14:09:24;;;;;;;5.23;3.70;;;;;;;15.60;56.36;101061.22;6209306;28;20225;-72
2023/10/18 14:12:45;;;;;;;3.83;3.20;;;;;;;16.00;54.21;101055.88;6213610;28;20616;-71
2023/10/18 14:16:09;;;;;;;2.53;2.33;;;;;;;15.96;54.29;101053.66;6215991;28;20504;-73
2023/10/18 14:19:31;;;;;;;3.70;3.27;;;;;;;15.92;54.85;101052.28;6235805;28;21885;-72
2023/10/18 14:22:55;;;;;;;2.03;1.83;;;;;;;16.17;53.74;101036.88;6234473;28;20307;-73
2023/10/18 14:26:17;;;;;;;4.37;3.53;;;;;;;16.25;53.78;101031.47;6211207;28;20225;-72
2023/10/18 14:29:38;;;;;;;4.10;3.47;;;;;;;16.05;54.65;101032.78;6229386;28;20236;-72
2023/10/18 14:33:00;;;;;;;1.80;1.70;;;;;;;15.75;55.20;101017.94;6229982;28;20236;-71
2023/10/18 14:36:23;;;;;;;3.03;2.67;;;;;;;15.52;55.58;101001.38;6227771;28;20617;-73
2023/10/18 14:39:44;;;;;;;5.27;3.87;;;;;;;16.01;54.55;101007.78;6224573;28;20233;-72
2023/10/18 14:43:05;;;;;;;3.83;2.97;;;;;;;15.96;54.52;100993.84;6204891;28;20604;-72
2023/10/18 14:46:27;;;;;;;1.93;1.73;;;;;;;15.73;55.22;100985.47;6204716;28;20221;-73
2023/10/18 14:49:48;;;;;;;4.97;3.90;;;;;;;15.59;55.26;100971.69;6205129;28;20558;-73
2023/10/18 14:53:13;;;;;;;2.67;2.47;;;;;;;15.05;56.38;100967.56;6204808;28;20720;-73
2023/10/18 14:56:34;;;;;;;6.47;4.93;;;;;;;14.65;58.96;100972.75;6204852;28;20789;-73
2023/10/18 14:59:55;;;;;;;3.87;3.57;;;;;;;13.90;61.38;100960.63;6205117;28;20498;-73
2023/10/18 15:03:18;;;;;;;3.40;2.30;;;;;;;13.61;63.10;100962.69;6228316;28;20236;-73
2023/10/18 15:06:38;;;;;;;2.40;2.00;;;;;;;13.36;65.22;100958.88;6206315;28;20229;-72
2023/10/18 15:10:01;;;;;;;3.50;2.70;;;;;;;13.47;65.45;100955.09;6216899;28;20260;-73
2023/10/18 15:13:23;;;;;;;5.47;4.80;;;;;;;13.34;66.91;100950.06;6216893;28;20228;-73
2023/10/18 15:16:45;;;;;;;3.77;3.33;;;;;;;13.22;67.92;100940.44;6208984;28;20237;-72
2023/10/18 15:20:07;;;;;;;2.80;2.53;;;;;;;13.16;69.65;100935.59;6205076;28;20634;-74
2023/10/18 15:23:28;;;;;;;6.57;5.10;;;;;;;13.03;70.84;100928.81;6230080;28;20237;-73
2023/10/18 15:26:50;;;;;;;8.43;6.43;;;;;;;12.92;72.53;100927.16;6208738;28;20317;-73
2023/10/18 15:30:16;;;;;;;6.37;5.33;;;;;;;12.72;75.08;100920.97;6214234;28;20542;-73
2023/10/18 15:33:39;;;;;;;6.10;5.10;;;;;;;12.58;76.97;100909.78;6226959;28;20598;-73
2023/10/18 15:37:01;;;;;;;7.47;6.80;;;;;;;12.45;77.53;100914.72;6224262;28;20232;-73
2023/10/18 15:40:22;;;;;;;4.27;3.87;;;;;;;12.44;78.84;100905.72;6228940;28;20668;-73
2023/10/18 15:43:47;;;;;;;3.80;3.50;;;;;;;12.44;79.51;100903.03;6208184;28;20252;-73
2023/10/18 15:47:09;;;;;;;2.80;2.60;;;;;;;12.37;81.08;100895.66;6198030;28;20228;-73
2023/10/18 15:50:29;;;;;;;6.17;4.17;;;;;;;12.25;81.72;100903.09;6196235;28;20584;-74
2023/10/18 15:53:52;;;;;;;5.50;3.97;;;;;;;12.16;82.33;100895.84;6213852;28;20978;-74
2023/10/18 15:57:13;;;;;;;4.77;4.13;;;;;;;12.03;82.79;100889.91;6202366;28;20315;-75
2023/10/18 16:00:38;;;;;;;8.17;4.30;;;;;;;12.02;84.39;100897.16;6200385;28;20237;-73